sensor_id;sensor_type;location;lat;lon;timestamp;P1;durP1;ratioP1;P2;durP2;ratioP2
79126;SDS011;68528;48.814;8.904;2023-06-10T00:00:46;6.05;;;5.45;;
79126;SDS011;68528;48.814;8.904;2023-06-10T00:03:11;6.82;;;5.05;;
79126;SDS011;68528;48.814;8.904;2023-06-10T00:05:38;7.40;;;4.82;;
79126;SDS011;68528;48.814;8.904;2023-06-10T00:08:04;9.45;;;5.35;;
79126;SDS011;68528;48.814;8.904;2023-06-10T00:10:35;6.75;;;5.07;;
79126;SDS011;68528;48.814;8.904;2023-06-10T00:13:04;6.20;;;5.25;;
79126;SDS011;68528;48.814;8.904;2023-06-10T00:16:06;6.07;;;5.07;;
79126;SDS011;68528;48.814;8.904;2023-06-10T00:18:33;7.75;;;5.32;;
79126;SDS011;68528;48.814;8.904;2023-06-10T00:21:01;7.53;;;5.25;;
79126;SDS011;68528;48.814;8.904;2023-06-10T00:23:29;5.43;;;4.85;;
79126;SDS011;68528;48.814;8.904;2023-06-10T00:25:56;6.55;;;5.18;;
79126;SDS011;68528;48.814;8.904;2023-06-10T00:28:23;7.40;;;4.63;;
79126;SDS011;68528;48.814;8.904;2023-06-10T00:30:48;6.60;;;5.03;;
79126;SDS011;68528;48.814;8.904;2023-06-10T00:33:18;8.15;;;4.32;;
79126;SDS011;68528;48.814;8.904;2023-06-10T00:35:44;6.60;;;4.55;;
79126;SDS011;68528;48.814;8.904;2023-06-10T00:38:09;5.88;;;4.63;;
79126;SDS011;68528;48.814;8.904;2023-06-10T00:40:38;7.28;;;4.05;;
79126;SDS011;68528;48.814;8.904;2023-06-10T00:43:05;7.70;;;5.00;;
79126;SDS011;68528;48.814;8.904;2023-06-10T00:45:32;5.78;;;3.88;;
79126;SDS011;68528;48.814;8.904;2023-06-10T00:47:58;6.57;;;4.20;;
79126;SDS011;68528;48.814;8.904;2023-06-10T00:50:27;5.10;;;4.25;;
79126;SDS011;68528;48.814;8.904;2023-06-10T00:53:39;6.63;;;4.90;;
79126;SDS011;68528;48.814;8.904;2023-06-10T00:57:00;6.00;;;4.60;;
79126;SDS011;68528;48.814;8.904;2023-06-10T00:59:28;5.40;;;4.55;;
79126;SDS011;68528;48.814;8.904;2023-06-10T01:01:56;7.50;;;5.18;;
79126;SDS011;68528;48.814;8.904;2023-06-10T01:04:22;8.50;;;4.70;;
79126;SDS011;68528;48.814;8.904;2023-06-10T01:06:54;4.90;;;4.40;;
79126;SDS011;68528;48.814;8.904;2023-06-10T01:12:58;7.18;;;4.43;;
79126;SDS011;68528;48.814;8.904;2023-06-10T01:15:30;6.43;;;4.05;;
79126;SDS011;68528;48.814;8.904;2023-06-10T01:17:57;8.07;;;4.72;;
79126;SDS011;68528;48.814;8.904;2023-06-10T01:20:27;6.97;;;4.68;;
79126;SDS011;68528;48.814;8.904;2023-06-10T01:25:20;5.55;;;4.68;;
79126;SDS011;68528;48.814;8.904;2023-06-10T01:33:33;6.20;;;5.30;;
79126;SDS011;68528;48.814;8.904;2023-06-10T01:36:04;8.50;;;4.85;;
79126;SDS011;68528;48.814;8.904;2023-06-10T01:38:32;6.75;;;4.55;;
79126;SDS011;68528;48.814;8.904;2023-06-10T01:41:01;6.13;;;5.10;;
79126;SDS011;68528;48.814;8.904;2023-06-10T01:43:28;4.90;;;4.38;;
79126;SDS011;68528;48.814;8.904;2023-06-10T01:45:53;7.75;;;4.88;;
79126;SDS011;68528;48.814;8.904;2023-06-10T01:48:50;6.72;;;4.60;;
79126;SDS011;68528;48.814;8.904;2023-06-10T01:51:15;8.00;;;5.22;;
79126;SDS011;68528;48.814;8.904;2023-06-10T01:53:40;5.70;;;4.82;;
79126;SDS011;68528;48.814;8.904;2023-06-10T01:56:06;7.95;;;5.47;;
79126;SDS011;68528;48.814;8.904;2023-06-10T01:58:31;7.18;;;4.97;;
79126;SDS011;68528;48.814;8.904;2023-06-10T02:00:57;7.18;;;5.07;;
79126;SDS011;68528;48.814;8.904;2023-06-10T02:03:22;6.47;;;5.13;;
79126;SDS011;68528;48.814;8.904;2023-06-10T02:05:48;7.20;;;5.03;;
79126;SDS011;68528;48.814;8.904;2023-06-10T02:08:17;7.97;;;5.60;;
79126;SDS011;68528;48.814;8.904;2023-06-10T02:10:43;7.95;;;4.97;;
79126;SDS011;68528;48.814;8.904;2023-06-10T02:13:09;6.93;;;5.10;;
79126;SDS011;68528;48.814;8.904;2023-06-10T02:15:34;8.43;;;5.35;;
79126;SDS011;68528;48.814;8.904;2023-06-10T02:18:00;7.88;;;5.43;;
79126;SDS011;68528;48.814;8.904;2023-06-10T02:20:25;9.65;;;5.75;;
79126;SDS011;68528;48.814;8.904;2023-06-10T02:22:54;7.75;;;5.45;;
79126;SDS011;68528;48.814;8.904;2023-06-10T02:25:26;8.05;;;5.40;;
79126;SDS011;68528;48.814;8.904;2023-06-10T02:27:51;6.10;;;5.25;;
79126;SDS011;68528;48.814;8.904;2023-06-10T02:30:16;6.03;;;5.13;;
79126;SDS011;68528;48.814;8.904;2023-06-10T02:32:42;6.72;;;5.30;;
79126;SDS011;68528;48.814;8.904;2023-06-10T02:35:07;6.32;;;5.28;;
79126;SDS011;68528;48.814;8.904;2023-06-10T02:37:33;6.85;;;5.50;;
79126;SDS011;68528;48.814;8.904;2023-06-10T02:39:59;8.18;;;5.45;;
79126;SDS011;68528;48.814;8.904;2023-06-10T02:42:45;6.63;;;5.82;;
79126;SDS011;68528;48.814;8.904;2023-06-10T02:45:10;9.60;;;6.88;;
79126;SDS011;68528;48.814;8.904;2023-06-10T02:47:37;7.38;;;5.65;;
79126;SDS011;68528;48.814;8.904;2023-06-10T02:50:03;7.47;;;5.80;;
79126;SDS011;68528;48.814;8.904;2023-06-10T02:52:31;8.32;;;5.50;;
79126;SDS011;68528;48.814;8.904;2023-06-10T02:54:57;7.28;;;5.75;;
79126;SDS011;68528;48.814;8.904;2023-06-10T02:57:22;9.63;;;5.90;;
79126;SDS011;68528;48.814;8.904;2023-06-10T02:59:52;8.68;;;6.18;;
79126;SDS011;68528;48.814;8.904;2023-06-10T03:02:58;6.38;;;5.38;;
79126;SDS011;68528;48.814;8.904;2023-06-10T03:05:27;7.15;;;5.85;;
79126;SDS011;68528;48.814;8.904;2023-06-10T03:07:53;5.90;;;5.30;;
79126;SDS011;68528;48.814;8.904;2023-06-10T03:10:19;7.68;;;6.65;;
79126;SDS011;68528;48.814;8.904;2023-06-10T03:12:44;8.75;;;6.82;;
79126;SDS011;68528;48.814;8.904;2023-06-10T03:15:12;7.15;;;5.82;;
79126;SDS011;68528;48.814;8.904;2023-06-10T03:17:40;8.93;;;6.60;;
79126;SDS011;68528;48.814;8.904;2023-06-10T03:20:31;7.20;;;6.35;;
79126;SDS011;68528;48.814;8.904;2023-06-10T03:23:04;14.38;;;6.35;;
79126;SDS011;68528;48.814;8.904;2023-06-10T03:25:32;9.35;;;6.50;;
79126;SDS011;68528;48.814;8.904;2023-06-10T03:28:00;7.65;;;6.00;;
79126;SDS011;68528;48.814;8.904;2023-06-10T03:30:29;7.72;;;6.13;;
79126;SDS011;68528;48.814;8.904;2023-06-10T03:32:57;9.38;;;6.18;;
79126;SDS011;68528;48.814;8.904;2023-06-10T03:35:38;9.20;;;6.20;;
79126;SDS011;68528;48.814;8.904;2023-06-10T03:38:07;7.75;;;6.00;;
79126;SDS011;68528;48.814;8.904;2023-06-10T03:40:33;8.23;;;5.72;;
79126;SDS011;68528;48.814;8.904;2023-06-10T03:43:01;7.07;;;5.57;;
79126;SDS011;68528;48.814;8.904;2023-06-10T03:45:26;7.85;;;5.45;;
79126;SDS011;68528;48.814;8.904;2023-06-10T03:47:53;8.55;;;5.60;;
79126;SDS011;68528;48.814;8.904;2023-06-10T03:50:19;8.73;;;5.00;;
79126;SDS011;68528;48.814;8.904;2023-06-10T03:52:53;6.85;;;5.30;;
79126;SDS011;68528;48.814;8.904;2023-06-10T03:55:39;7.30;;;5.22;;
79126;SDS011;68528;48.814;8.904;2023-06-10T03:58:31;7.85;;;4.90;;
79126;SDS011;68528;48.814;8.904;2023-06-10T04:01:00;7.13;;;4.90;;
79126;SDS011;68528;48.814;8.904;2023-06-10T04:03:25;6.28;;;3.65;;
79126;SDS011;68528;48.814;8.904;2023-06-10T04:08:47;4.28;;;3.60;;
79126;SDS011;68528;48.814;8.904;2023-06-10T04:11:15;5.68;;;4.40;;
79126;SDS011;68528;48.814;8.904;2023-06-10T04:13:41;5.95;;;3.70;;
79126;SDS011;68528;48.814;8.904;2023-06-10T04:16:15;5.00;;;4.15;;
79126;SDS011;68528;48.814;8.904;2023-06-10T04:18:52;6.57;;;4.25;;
79126;SDS011;68528;48.814;8.904;2023-06-10T04:21:41;11.05;;;5.13;;
79126;SDS011;68528;48.814;8.904;2023-06-10T04:24:09;6.78;;;4.78;;
79126;SDS011;68528;48.814;8.904;2023-06-10T04:26:40;6.03;;;4.68;;
79126;SDS011;68528;48.814;8.904;2023-06-10T04:32:15;6.38;;;4.43;;
79126;SDS011;68528;48.814;8.904;2023-06-10T04:35:40;5.55;;;4.45;;
79126;SDS011;68528;48.814;8.904;2023-06-10T04:38:06;5.80;;;4.40;;
79126;SDS011;68528;48.814;8.904;2023-06-10T04:40:54;5.65;;;4.15;;
79126;SDS011;68528;48.814;8.904;2023-06-10T04:43:25;7.85;;;4.90;;
79126;SDS011;68528;48.814;8.904;2023-06-10T04:45:55;5.82;;;4.18;;
79126;SDS011;68528;48.814;8.904;2023-06-10T04:51:07;6.10;;;3.85;;
79126;SDS011;68528;48.814;8.904;2023-06-10T04:53:54;5.63;;;4.18;;
79126;SDS011;68528;48.814;8.904;2023-06-10T04:56:19;5.10;;;3.83;;
79126;SDS011;68528;48.814;8.904;2023-06-10T04:58:47;4.97;;;3.83;;
79126;SDS011;68528;48.814;8.904;2023-06-10T05:03:59;5.22;;;4.20;;
79126;SDS011;68528;48.814;8.904;2023-06-10T05:10:05;5.10;;;3.97;;
79126;SDS011;68528;48.814;8.904;2023-06-10T05:12:37;5.43;;;4.03;;
79126;SDS011;68528;48.814;8.904;2023-06-10T05:15:04;6.00;;;4.13;;
79126;SDS011;68528;48.814;8.904;2023-06-10T05:17:33;5.35;;;3.83;;
79126;SDS011;68528;48.814;8.904;2023-06-10T05:20:04;4.20;;;3.53;;
79126;SDS011;68528;48.814;8.904;2023-06-10T05:22:36;4.93;;;3.53;;
79126;SDS011;68528;48.814;8.904;2023-06-10T05:25:05;6.63;;;3.65;;
79126;SDS011;68528;48.814;8.904;2023-06-10T05:27:39;5.03;;;3.67;;
79126;SDS011;68528;48.814;8.904;2023-06-10T05:30:08;5.70;;;4.28;;
79126;SDS011;68528;48.814;8.904;2023-06-10T05:32:35;4.50;;;3.58;;
79126;SDS011;68528;48.814;8.904;2023-06-10T05:35:12;4.32;;;3.38;;
79126;SDS011;68528;48.814;8.904;2023-06-10T05:37:40;5.32;;;3.60;;
79126;SDS011;68528;48.814;8.904;2023-06-10T05:40:09;6.72;;;5.25;;
79126;SDS011;68528;48.814;8.904;2023-06-10T05:42:51;5.90;;;3.75;;
79126;SDS011;68528;48.814;8.904;2023-06-10T05:45:17;3.80;;;3.20;;
79126;SDS011;68528;48.814;8.904;2023-06-10T05:47:45;4.22;;;3.58;;
79126;SDS011;68528;48.814;8.904;2023-06-10T05:50:34;5.05;;;3.50;;
79126;SDS011;68528;48.814;8.904;2023-06-10T05:53:07;4.50;;;3.50;;
79126;SDS011;68528;48.814;8.904;2023-06-10T05:55:40;4.30;;;3.33;;
79126;SDS011;68528;48.814;8.904;2023-06-10T05:58:14;4.43;;;3.65;;
79126;SDS011;68528;48.814;8.904;2023-06-10T06:00:45;4.15;;;3.42;;
79126;SDS011;68528;48.814;8.904;2023-06-10T06:03:10;6.13;;;3.72;;
79126;SDS011;68528;48.814;8.904;2023-06-10T06:05:46;5.07;;;3.47;;
79126;SDS011;68528;48.814;8.904;2023-06-10T06:09:18;5.95;;;3.53;;
79126;SDS011;68528;48.814;8.904;2023-06-10T06:11:46;4.95;;;3.75;;
79126;SDS011;68528;48.814;8.904;2023-06-10T06:14:15;5.20;;;3.95;;
79126;SDS011;68528;48.814;8.904;2023-06-10T06:16:40;4.45;;;3.72;;
79126;SDS011;68528;48.814;8.904;2023-06-10T06:19:06;4.47;;;3.72;;
79126;SDS011;68528;48.814;8.904;2023-06-10T06:21:35;6.55;;;3.90;;
79126;SDS011;68528;48.814;8.904;2023-06-10T06:24:06;5.15;;;4.22;;
79126;SDS011;68528;48.814;8.904;2023-06-10T06:26:38;4.72;;;4.03;;
79126;SDS011;68528;48.814;8.904;2023-06-10T06:29:06;4.57;;;3.90;;
79126;SDS011;68528;48.814;8.904;2023-06-10T06:31:34;5.50;;;4.32;;
79126;SDS011;68528;48.814;8.904;2023-06-10T06:34:02;4.28;;;3.85;;
79126;SDS011;68528;48.814;8.904;2023-06-10T06:36:28;4.85;;;3.78;;
79126;SDS011;68528;48.814;8.904;2023-06-10T06:38:53;4.90;;;4.00;;
79126;SDS011;68528;48.814;8.904;2023-06-10T06:41:30;5.45;;;4.03;;
79126;SDS011;68528;48.814;8.904;2023-06-10T06:43:57;5.18;;;3.92;;
79126;SDS011;68528;48.814;8.904;2023-06-10T06:46:59;4.80;;;4.18;;
79126;SDS011;68528;48.814;8.904;2023-06-10T06:49:30;5.53;;;3.80;;
79126;SDS011;68528;48.814;8.904;2023-06-10T06:51:55;4.93;;;3.83;;
79126;SDS011;68528;48.814;8.904;2023-06-10T06:54:21;6.22;;;4.20;;
79126;SDS011;68528;48.814;8.904;2023-06-10T06:56:47;5.28;;;4.05;;
79126;SDS011;68528;48.814;8.904;2023-06-10T06:59:53;6.15;;;4.10;;
79126;SDS011;68528;48.814;8.904;2023-06-10T07:02:21;4.80;;;4.22;;
79126;SDS011;68528;48.814;8.904;2023-06-10T07:04:50;4.80;;;3.63;;
79126;SDS011;68528;48.814;8.904;2023-06-10T07:07:15;4.13;;;3.60;;
79126;SDS011;68528;48.814;8.904;2023-06-10T07:09:43;4.90;;;3.88;;
79126;SDS011;68528;48.814;8.904;2023-06-10T07:12:08;4.32;;;3.63;;
79126;SDS011;68528;48.814;8.904;2023-06-10T07:14:35;3.78;;;3.25;;
79126;SDS011;68528;48.814;8.904;2023-06-10T07:17:07;4.90;;;4.40;;
79126;SDS011;68528;48.814;8.904;2023-06-10T07:20:02;4.38;;;3.90;;
79126;SDS011;68528;48.814;8.904;2023-06-10T07:23:11;5.45;;;4.65;;
79126;SDS011;68528;48.814;8.904;2023-06-10T07:25:41;5.80;;;3.55;;
79126;SDS011;68528;48.814;8.904;2023-06-10T07:28:23;5.57;;;3.95;;
79126;SDS011;68528;48.814;8.904;2023-06-10T07:30:50;4.97;;;3.97;;
79126;SDS011;68528;48.814;8.904;2023-06-10T07:33:16;6.18;;;3.60;;
79126;SDS011;68528;48.814;8.904;2023-06-10T07:38:10;5.77;;;3.70;;
79126;SDS011;68528;48.814;8.904;2023-06-10T07:40:39;4.25;;;3.55;;
79126;SDS011;68528;48.814;8.904;2023-06-10T07:43:11;5.45;;;3.70;;
79126;SDS011;68528;48.814;8.904;2023-06-10T07:45:47;4.00;;;3.50;;
79126;SDS011;68528;48.814;8.904;2023-06-10T07:48:15;4.13;;;3.72;;
79126;SDS011;68528;48.814;8.904;2023-06-10T07:50:40;5.28;;;3.55;;
79126;SDS011;68528;48.814;8.904;2023-06-10T07:53:06;4.45;;;3.17;;
79126;SDS011;68528;48.814;8.904;2023-06-10T07:55:31;5.63;;;3.90;;
79126;SDS011;68528;48.814;8.904;2023-06-10T07:57:57;5.05;;;3.40;;
79126;SDS011;68528;48.814;8.904;2023-06-10T08:00:23;3.55;;;3.25;;
79126;SDS011;68528;48.814;8.904;2023-06-10T08:02:49;3.92;;;3.15;;
79126;SDS011;68528;48.814;8.904;2023-06-10T08:05:15;4.53;;;3.88;;
79126;SDS011;68528;48.814;8.904;2023-06-10T08:07:42;6.05;;;4.43;;
79126;SDS011;68528;48.814;8.904;2023-06-10T08:10:14;5.00;;;3.55;;
79126;SDS011;68528;48.814;8.904;2023-06-10T08:13:36;5.80;;;3.88;;
79126;SDS011;68528;48.814;8.904;2023-06-10T08:16:02;4.03;;;3.63;;
79126;SDS011;68528;48.814;8.904;2023-06-10T08:18:28;4.25;;;3.67;;
79126;SDS011;68528;48.814;8.904;2023-06-10T08:20:53;4.88;;;4.32;;
79126;SDS011;68528;48.814;8.904;2023-06-10T08:23:19;6.47;;;5.10;;
79126;SDS011;68528;48.814;8.904;2023-06-10T08:25:46;9.60;;;4.80;;
79126;SDS011;68528;48.814;8.904;2023-06-10T08:28:27;5.43;;;4.53;;
79126;SDS011;68528;48.814;8.904;2023-06-10T08:31:11;5.93;;;4.70;;
79126;SDS011;68528;48.814;8.904;2023-06-10T08:33:37;5.15;;;4.28;;
79126;SDS011;68528;48.814;8.904;2023-06-10T08:36:02;5.90;;;4.72;;
79126;SDS011;68528;48.814;8.904;2023-06-10T08:38:28;9.02;;;4.30;;
79126;SDS011;68528;48.814;8.904;2023-06-10T08:40:56;11.93;;;4.40;;
79126;SDS011;68528;48.814;8.904;2023-06-10T08:43:31;5.00;;;4.32;;
79126;SDS011;68528;48.814;8.904;2023-06-10T08:46:00;6.82;;;4.03;;
79126;SDS011;68528;48.814;8.904;2023-06-10T08:48:27;5.65;;;4.30;;
79126;SDS011;68528;48.814;8.904;2023-06-10T08:51:05;4.50;;;4.10;;
79126;SDS011;68528;48.814;8.904;2023-06-10T08:53:42;3.95;;;3.28;;
79126;SDS011;68528;48.814;8.904;2023-06-10T08:56:24;4.22;;;3.83;;
79126;SDS011;68528;48.814;8.904;2023-06-10T08:59:20;5.00;;;3.83;;
79126;SDS011;68528;48.814;8.904;2023-06-10T09:02:06;5.45;;;3.95;;
79126;SDS011;68528;48.814;8.904;2023-06-10T09:04:36;4.70;;;3.50;;
79126;SDS011;68528;48.814;8.904;2023-06-10T09:07:02;4.55;;;4.07;;
79126;SDS011;68528;48.814;8.904;2023-06-10T09:09:28;4.03;;;3.58;;
79126;SDS011;68528;48.814;8.904;2023-06-10T09:11:59;5.28;;;3.50;;
79126;SDS011;68528;48.814;8.904;2023-06-10T09:14:25;6.88;;;4.25;;
79126;SDS011;68528;48.814;8.904;2023-06-10T09:16:50;4.70;;;3.75;;
79126;SDS011;68528;48.814;8.904;2023-06-10T09:19:16;4.07;;;3.20;;
79126;SDS011;68528;48.814;8.904;2023-06-10T09:21:42;6.95;;;3.78;;
79126;SDS011;68528;48.814;8.904;2023-06-10T09:24:07;3.78;;;3.30;;
79126;SDS011;68528;48.814;8.904;2023-06-10T09:26:36;7.60;;;3.70;;
79126;SDS011;68528;48.814;8.904;2023-06-10T09:29:05;6.72;;;4.32;;
79126;SDS011;68528;48.814;8.904;2023-06-10T09:31:36;4.63;;;3.80;;
79126;SDS011;68528;48.814;8.904;2023-06-10T09:34:10;5.50;;;4.20;;
79126;SDS011;68528;48.814;8.904;2023-06-10T09:36:47;4.20;;;3.78;;
79126;SDS011;68528;48.814;8.904;2023-06-10T09:39:13;5.43;;;4.15;;
79126;SDS011;68528;48.814;8.904;2023-06-10T09:41:43;5.15;;;3.90;;
79126;SDS011;68528;48.814;8.904;2023-06-10T09:44:13;4.45;;;3.92;;
79126;SDS011;68528;48.814;8.904;2023-06-10T09:46:39;11.50;;;4.80;;
79126;SDS011;68528;48.814;8.904;2023-06-10T09:49:05;4.95;;;4.28;;
79126;SDS011;68528;48.814;8.904;2023-06-10T09:51:30;4.72;;;4.10;;
79126;SDS011;68528;48.814;8.904;2023-06-10T09:53:57;4.70;;;4.22;;
79126;SDS011;68528;48.814;8.904;2023-06-10T09:56:35;8.23;;;3.78;;
79126;SDS011;68528;48.814;8.904;2023-06-10T09:59:01;6.45;;;4.47;;
79126;SDS011;68528;48.814;8.904;2023-06-10T10:01:30;5.57;;;3.72;;
79126;SDS011;68528;48.814;8.904;2023-06-10T10:03:56;6.30;;;4.82;;
79126;SDS011;68528;48.814;8.904;2023-06-10T10:06:22;5.70;;;3.72;;
79126;SDS011;68528;48.814;8.904;2023-06-10T10:08:48;5.30;;;3.70;;
79126;SDS011;68528;48.814;8.904;2023-06-10T10:11:17;6.10;;;4.80;;
79126;SDS011;68528;48.814;8.904;2023-06-10T10:13:47;4.63;;;4.18;;
79126;SDS011;68528;48.814;8.904;2023-06-10T10:16:19;4.78;;;4.28;;
79126;SDS011;68528;48.814;8.904;2023-06-10T10:19:01;4.53;;;4.00;;
79126;SDS011;68528;48.814;8.904;2023-06-10T10:21:34;5.93;;;4.35;;
79126;SDS011;68528;48.814;8.904;2023-06-10T10:24:24;5.65;;;3.95;;
79126;SDS011;68528;48.814;8.904;2023-06-10T10:27:01;4.75;;;4.28;;
79126;SDS011;68528;48.814;8.904;2023-06-10T10:29:39;4.00;;;3.60;;
79126;SDS011;68528;48.814;8.904;2023-06-10T10:32:10;7.03;;;3.65;;
79126;SDS011;68528;48.814;8.904;2023-06-10T10:37:26;4.78;;;4.22;;
79126;SDS011;68528;48.814;8.904;2023-06-10T10:39:53;5.30;;;3.92;;
79126;SDS011;68528;48.814;8.904;2023-06-10T10:42:19;4.47;;;4.07;;
79126;SDS011;68528;48.814;8.904;2023-06-10T10:44:47;4.85;;;4.25;;
79126;SDS011;68528;48.814;8.904;2023-06-10T10:47:15;4.22;;;3.72;;
79126;SDS011;68528;48.814;8.904;2023-06-10T10:49:42;4.57;;;3.63;;
79126;SDS011;68528;48.814;8.904;2023-06-10T10:52:13;4.60;;;4.20;;
79126;SDS011;68528;48.814;8.904;2023-06-10T10:54:39;6.60;;;4.88;;
79126;SDS011;68528;48.814;8.904;2023-06-10T11:02:43;6.60;;;3.42;;
79126;SDS011;68528;48.814;8.904;2023-06-10T11:05:11;8.20;;;3.60;;
79126;SDS011;68528;48.814;8.904;2023-06-10T11:07:39;4.80;;;3.35;;
79126;SDS011;68528;48.814;8.904;2023-06-10T11:10:09;4.32;;;3.53;;
79126;SDS011;68528;48.814;8.904;2023-06-10T11:15:13;4.82;;;4.22;;
79126;SDS011;68528;48.814;8.904;2023-06-10T11:20:42;4.50;;;3.92;;
79126;SDS011;68528;48.814;8.904;2023-06-10T11:31:19;4.90;;;3.70;;
79126;SDS011;68528;48.814;8.904;2023-06-10T11:34:04;3.88;;;3.47;;
79126;SDS011;68528;48.814;8.904;2023-06-10T11:36:33;5.70;;;4.72;;
79126;SDS011;68528;48.814;8.904;2023-06-10T11:39:05;4.63;;;3.50;;
79126;SDS011;68528;48.814;8.904;2023-06-10T11:41:33;3.95;;;3.28;;
79126;SDS011;68528;48.814;8.904;2023-06-10T11:44:07;5.93;;;3.58;;
79126;SDS011;68528;48.814;8.904;2023-06-10T11:46:35;5.53;;;3.53;;
79126;SDS011;68528;48.814;8.904;2023-06-10T11:49:07;3.92;;;3.53;;
79126;SDS011;68528;48.814;8.904;2023-06-10T11:51:37;6.43;;;4.10;;
79126;SDS011;68528;48.814;8.904;2023-06-10T11:54:08;6.45;;;3.53;;
79126;SDS011;68528;48.814;8.904;2023-06-10T11:56:34;4.28;;;3.58;;
79126;SDS011;68528;48.814;8.904;2023-06-10T11:59:01;3.88;;;3.58;;
79126;SDS011;68528;48.814;8.904;2023-06-10T12:01:33;4.45;;;3.75;;
79126;SDS011;68528;48.814;8.904;2023-06-10T12:04:06;7.00;;;3.97;;
79126;SDS011;68528;48.814;8.904;2023-06-10T12:06:41;4.05;;;3.30;;
79126;SDS011;68528;48.814;8.904;2023-06-10T12:11:45;4.22;;;3.72;;
79126;SDS011;68528;48.814;8.904;2023-06-10T12:14:15;3.60;;;2.90;;
79126;SDS011;68528;48.814;8.904;2023-06-10T12:16:40;3.85;;;3.47;;
79126;SDS011;68528;48.814;8.904;2023-06-10T12:19:13;7.75;;;3.30;;
79126;SDS011;68528;48.814;8.904;2023-06-10T12:21:39;4.10;;;3.58;;
79126;SDS011;68528;48.814;8.904;2023-06-10T12:24:08;5.28;;;3.63;;
79126;SDS011;68528;48.814;8.904;2023-06-10T12:29:01;4.20;;;3.80;;
79126;SDS011;68528;48.814;8.904;2023-06-10T12:32:07;3.80;;;3.42;;
79126;SDS011;68528;48.814;8.904;2023-06-10T12:35:02;3.63;;;3.20;;
79126;SDS011;68528;48.814;8.904;2023-06-10T12:38:02;5.38;;;3.38;;
79126;SDS011;68528;48.814;8.904;2023-06-10T12:43:01;6.15;;;3.45;;
79126;SDS011;68528;48.814;8.904;2023-06-10T12:45:30;3.58;;;3.28;;
79126;SDS011;68528;48.814;8.904;2023-06-10T12:48:17;4.20;;;3.30;;
79126;SDS011;68528;48.814;8.904;2023-06-10T12:50:57;4.90;;;3.13;;
79126;SDS011;68528;48.814;8.904;2023-06-10T12:53:32;4.80;;;3.60;;
79126;SDS011;68528;48.814;8.904;2023-06-10T12:55:57;4.10;;;3.13;;
79126;SDS011;68528;48.814;8.904;2023-06-10T12:58:24;5.75;;;3.42;;
79126;SDS011;68528;48.814;8.904;2023-06-10T13:00:49;5.75;;;3.40;;
79126;SDS011;68528;48.814;8.904;2023-06-10T13:03:17;4.30;;;3.50;;
79126;SDS011;68528;48.814;8.904;2023-06-10T13:05:48;5.53;;;3.33;;
79126;SDS011;68528;48.814;8.904;2023-06-10T13:08:14;3.10;;;2.75;;
79126;SDS011;68528;48.814;8.904;2023-06-10T13:10:50;3.80;;;3.40;;
79126;SDS011;68528;48.814;8.904;2023-06-10T13:13:16;3.63;;;3.33;;
79126;SDS011;68528;48.814;8.904;2023-06-10T13:15:42;4.57;;;3.40;;
79126;SDS011;68528;48.814;8.904;2023-06-10T13:18:14;6.25;;;3.53;;
79126;SDS011;68528;48.814;8.904;2023-06-10T13:20:40;6.15;;;3.90;;
79126;SDS011;68528;48.814;8.904;2023-06-10T13:23:05;4.53;;;3.92;;
79126;SDS011;68528;48.814;8.904;2023-06-10T13:25:31;4.13;;;3.60;;
79126;SDS011;68528;48.814;8.904;2023-06-10T13:27:58;4.82;;;3.17;;
79126;SDS011;68528;48.814;8.904;2023-06-10T13:30:24;3.65;;;3.15;;
79126;SDS011;68528;48.814;8.904;2023-06-10T13:32:50;3.80;;;3.22;;
79126;SDS011;68528;48.814;8.904;2023-06-10T13:35:15;3.05;;;2.75;;
79126;SDS011;68528;48.814;8.904;2023-06-10T13:37:41;5.32;;;3.33;;
79126;SDS011;68528;48.814;8.904;2023-06-10T13:40:07;3.78;;;2.80;;
79126;SDS011;68528;48.814;8.904;2023-06-10T13:42:34;4.32;;;3.25;;
79126;SDS011;68528;48.814;8.904;2023-06-10T13:45:01;5.60;;;3.28;;
79126;SDS011;68528;48.814;8.904;2023-06-10T13:47:27;3.63;;;2.90;;
79126;SDS011;68528;48.814;8.904;2023-06-10T13:49:52;3.88;;;3.10;;
79126;SDS011;68528;48.814;8.904;2023-06-10T13:52:17;3.63;;;3.08;;
79126;SDS011;68528;48.814;8.904;2023-06-10T13:54:43;5.18;;;3.00;;
79126;SDS011;68528;48.814;8.904;2023-06-10T13:57:08;4.53;;;3.22;;
79126;SDS011;68528;48.814;8.904;2023-06-10T13:59:35;3.83;;;3.40;;
79126;SDS011;68528;48.814;8.904;2023-06-10T14:02:00;3.38;;;3.08;;
79126;SDS011;68528;48.814;8.904;2023-06-10T14:04:29;3.90;;;2.70;;
79126;SDS011;68528;48.814;8.904;2023-06-10T14:06:54;3.67;;;3.38;;
79126;SDS011;68528;48.814;8.904;2023-06-10T14:09:22;3.30;;;2.95;;
79126;SDS011;68528;48.814;8.904;2023-06-10T14:11:48;3.42;;;2.80;;
79126;SDS011;68528;48.814;8.904;2023-06-10T14:14:13;4.05;;;2.88;;
79126;SDS011;68528;48.814;8.904;2023-06-10T14:16:40;3.83;;;2.55;;
79126;SDS011;68528;48.814;8.904;2023-06-10T14:19:05;3.25;;;2.60;;
79126;SDS011;68528;48.814;8.904;2023-06-10T14:21:36;3.03;;;2.58;;
79126;SDS011;68528;48.814;8.904;2023-06-10T14:24:03;3.67;;;3.00;;
79126;SDS011;68528;48.814;8.904;2023-06-10T14:26:29;4.15;;;2.88;;
79126;SDS011;68528;48.814;8.904;2023-06-10T14:28:54;5.80;;;3.10;;
79126;SDS011;68528;48.814;8.904;2023-06-10T14:31:19;2.80;;;2.20;;
79126;SDS011;68528;48.814;8.904;2023-06-10T14:33:45;2.70;;;2.50;;
79126;SDS011;68528;48.814;8.904;2023-06-10T14:36:11;3.58;;;2.60;;
79126;SDS011;68528;48.814;8.904;2023-06-10T14:38:38;3.72;;;3.28;;
79126;SDS011;68528;48.814;8.904;2023-06-10T14:41:03;5.35;;;3.13;;
79126;SDS011;68528;48.814;8.904;2023-06-10T14:43:29;4.00;;;2.92;;
79126;SDS011;68528;48.814;8.904;2023-06-10T14:45:54;3.60;;;2.80;;
79126;SDS011;68528;48.814;8.904;2023-06-10T14:48:21;2.83;;;2.53;;
79126;SDS011;68528;48.814;8.904;2023-06-10T14:50:46;3.15;;;2.83;;
79126;SDS011;68528;48.814;8.904;2023-06-10T14:53:16;4.70;;;2.80;;
79126;SDS011;68528;48.814;8.904;2023-06-10T14:55:48;3.20;;;2.90;;
79126;SDS011;68528;48.814;8.904;2023-06-10T14:59:06;3.67;;;2.67;;
79126;SDS011;68528;48.814;8.904;2023-06-10T15:01:52;3.25;;;2.90;;
79126;SDS011;68528;48.814;8.904;2023-06-10T15:04:17;4.78;;;2.97;;
79126;SDS011;68528;48.814;8.904;2023-06-10T15:06:43;3.42;;;3.00;;
79126;SDS011;68528;48.814;8.904;2023-06-10T15:09:09;3.60;;;3.00;;
79126;SDS011;68528;48.814;8.904;2023-06-10T15:11:37;4.28;;;3.33;;
79126;SDS011;68528;48.814;8.904;2023-06-10T15:14:03;4.50;;;2.97;;
79126;SDS011;68528;48.814;8.904;2023-06-10T15:16:28;4.60;;;3.03;;
79126;SDS011;68528;48.814;8.904;2023-06-10T15:18:59;3.17;;;2.85;;
79126;SDS011;68528;48.814;8.904;2023-06-10T15:21:24;3.47;;;2.92;;
79126;SDS011;68528;48.814;8.904;2023-06-10T15:23:51;4.28;;;2.95;;
79126;SDS011;68528;48.814;8.904;2023-06-10T15:26:17;3.65;;;3.03;;
79126;SDS011;68528;48.814;8.904;2023-06-10T15:28:45;3.72;;;2.88;;
79126;SDS011;68528;48.814;8.904;2023-06-10T15:31:11;3.38;;;2.88;;
79126;SDS011;68528;48.814;8.904;2023-06-10T15:33:36;5.65;;;2.97;;
79126;SDS011;68528;48.814;8.904;2023-06-10T15:36:06;4.68;;;3.33;;
79126;SDS011;68528;48.814;8.904;2023-06-10T15:38:40;3.53;;;3.22;;
79126;SDS011;68528;48.814;8.904;2023-06-10T15:41:05;3.50;;;3.00;;
79126;SDS011;68528;48.814;8.904;2023-06-10T15:43:31;3.63;;;3.15;;
79126;SDS011;68528;48.814;8.904;2023-06-10T15:45:57;3.70;;;3.00;;
79126;SDS011;68528;48.814;8.904;2023-06-10T15:48:22;3.42;;;3.10;;
79126;SDS011;68528;48.814;8.904;2023-06-10T15:50:49;3.42;;;3.13;;
79126;SDS011;68528;48.814;8.904;2023-06-10T15:53:14;3.90;;;3.50;;
79126;SDS011;68528;48.814;8.904;2023-06-10T15:55:40;4.03;;;2.83;;
79126;SDS011;68528;48.814;8.904;2023-06-10T15:58:06;20.48;;;3.50;;
79126;SDS011;68528;48.814;8.904;2023-06-10T16:00:31;4.25;;;3.20;;
79126;SDS011;68528;48.814;8.904;2023-06-10T16:02:57;3.17;;;2.72;;
79126;SDS011;68528;48.814;8.904;2023-06-10T16:05:22;3.55;;;3.15;;
79126;SDS011;68528;48.814;8.904;2023-06-10T16:07:47;3.80;;;3.50;;